createdAt,value
2017-12-03T00:00:11.951Z,4.00
2017-12-03T00:01:12.026Z,4.00
2017-12-03T00:02:11.987Z,4.00
2017-12-03T00:03:12.020Z,4.00
2017-12-03T00:04:12.368Z,4.00
2017-12-03T00:05:12.082Z,4.00
2017-12-03T00:06:12.132Z,4.00
2017-12-03T00:07:12.208Z,4.00
2017-12-03T00:08:12.256Z,4.00
2017-12-03T00:09:12.218Z,4.00
2017-12-03T00:10:12.599Z,4.00
2017-12-03T00:11:12.262Z,4.00
2017-12-03T00:12:12.302Z,4.00
2017-12-03T00:13:12.492Z,4.00
2017-12-03T00:14:12.353Z,4.00
2017-12-03T00:15:12.442Z,8.00
2017-12-03T00:16:12.772Z,4.00
2017-12-03T00:17:12.522Z,8.00
2017-12-03T00:18:12.495Z,8.00
2017-12-03T00:19:12.610Z,8.00
2017-12-03T00:20:12.540Z,8.00
2017-12-03T00:21:12.573Z,8.00
2017-12-03T00:22:12.973Z,8.00
2017-12-03T00:23:12.652Z,8.00
2017-12-03T00:24:12.710Z,8.00
2017-12-03T00:25:12.793Z,8.00
2017-12-03T00:26:12.726Z,8.00
2017-12-03T00:27:12.782Z,4.00
2017-12-03T00:28:13.188Z,8.00
2017-12-03T00:29:12.836Z,8.00
2017-12-03T00:30:12.863Z,8.00
2017-12-03T00:31:12.890Z,8.00
2017-12-03T00:32:12.912Z,8.00
2017-12-03T00:33:12.986Z,4.00
2017-12-03T00:35:13.346Z,8.00
2017-12-03T00:36:13.228Z,8.00
2017-12-03T00:37:13.065Z,8.00
2017-12-03T00:38:13.141Z,0.00
2017-12-03T00:39:13.169Z,0.00
2017-12-03T00:40:13.226Z,0.00
2017-12-03T00:41:13.549Z,0.00
2017-12-03T00:42:13.291Z,0.00
2017-12-03T00:43:13.243Z,0.00
2017-12-03T00:44:13.267Z,0.00
2017-12-03T00:45:13.327Z,0.00
2017-12-03T00:46:13.332Z,0.00
2017-12-03T00:47:13.713Z,0.00
2017-12-03T00:48:13.458Z,0.00
2017-12-03T00:49:13.416Z,0.00
2017-12-03T00:50:13.518Z,0.00
2017-12-03T00:51:13.495Z,0.00
2017-12-03T00:52:13.527Z,0.00
2017-12-03T00:53:13.908Z,0.00
2017-12-03T00:54:13.610Z,0.00
2017-12-03T00:55:13.614Z,0.00
2017-12-03T00:56:13.846Z,0.00
2017-12-03T00:57:13.696Z,0.00
2017-12-03T00:58:13.694Z,0.00
2017-12-03T00:59:14.033Z,0.00
2017-12-03T01:00:13.831Z,0.00
2017-12-03T01:01:13.787Z,0.00
2017-12-03T01:02:13.862Z,0.00
2017-12-03T01:03:13.843Z,0.00
2017-12-03T01:04:13.889Z,0.00
2017-12-03T01:05:13.918Z,0.00
2017-12-03T01:06:14.280Z,0.00
2017-12-03T01:07:14.033Z,0.00
2017-12-03T01:08:14.023Z,0.00
2017-12-03T01:09:14.022Z,0.00
2017-12-03T01:10:14.051Z,0.00
2017-12-03T01:11:14.087Z,0.00
2017-12-03T01:12:14.130Z,0.00
2017-12-03T01:13:14.503Z,0.00
2017-12-03T01:14:14.212Z,0.00
2017-12-03T01:15:14.213Z,0.00
2017-12-03T01:16:14.260Z,0.00
2017-12-03T01:17:14.341Z,0.00
2017-12-03T01:18:14.296Z,0.00
2017-12-03T01:19:14.376Z,0.00
2017-12-03T01:20:14.716Z,0.00
2017-12-03T01:21:14.385Z,0.00
2017-12-03T01:22:14.673Z,0.00
2017-12-03T01:23:14.462Z,0.00
2017-12-03T01:24:14.495Z,0.00
2017-12-03T01:25:14.526Z,0.00
2017-12-03T01:26:14.537Z,0.00
2017-12-03T01:27:14.938Z,0.00
2017-12-03T01:28:14.667Z,0.00
2017-12-03T01:29:14.639Z,0.00
2017-12-03T01:30:14.689Z,0.00
2017-12-03T01:31:14.723Z,0.00
2017-12-03T01:32:14.794Z,0.00
2017-12-03T01:33:14.766Z,0.00
2017-12-03T01:34:15.236Z,0.00
2017-12-03T01:35:14.823Z,0.00
2017-12-03T01:36:14.861Z,0.00
2017-12-03T01:37:14.891Z,0.00
2017-12-03T01:38:14.935Z,0.00
2017-12-03T01:39:14.946Z,0.00
2017-12-03T01:40:15.078Z,0.00
2017-12-03T01:41:15.346Z,0.00
2017-12-03T01:42:15.091Z,0.00
2017-12-03T01:43:15.053Z,0.00
2017-12-03T01:44:15.150Z,0.00
2017-12-03T01:45:15.134Z,0.00
2017-12-03T01:46:15.163Z,0.00
2017-12-03T01:47:15.252Z,0.00
2017-12-03T01:48:15.561Z,0.00
2017-12-03T01:49:15.242Z,0.00
2017-12-03T01:50:15.340Z,0.00
2017-12-03T01:51:15.319Z,0.00
2017-12-03T01:52:15.402Z,0.00
2017-12-03T01:53:15.490Z,0.00
2017-12-03T01:54:15.405Z,0.00
2017-12-03T01:55:15.787Z,0.00
2017-12-03T01:56:15.470Z,0.00
2017-12-03T01:57:15.500Z,0.00
2017-12-03T01:58:15.518Z,0.00
2017-12-03T01:59:15.666Z,0.00
2017-12-03T02:00:15.573Z,0.00
2017-12-03T02:01:15.621Z,0.00
2017-12-03T02:02:15.962Z,0.00
2017-12-03T02:03:15.693Z,0.00
2017-12-03T02:04:15.710Z,0.00
2017-12-03T02:05:15.778Z,0.00
2017-12-03T02:06:15.822Z,0.00
2017-12-03T02:07:15.854Z,0.00
2017-12-03T02:08:15.820Z,0.00
2017-12-03T02:09:16.216Z,0.00
2017-12-03T02:10:15.899Z,0.00
2017-12-03T02:11:15.916Z,0.00
2017-12-03T02:12:15.971Z,0.00
2017-12-03T02:13:15.969Z,0.00
2017-12-03T02:14:16.031Z,0.00
2017-12-03T02:15:16.084Z,0.00
2017-12-03T02:16:16.477Z,0.00
2017-12-03T02:17:16.131Z,0.00
2017-12-03T02:18:16.121Z,0.00
2017-12-03T02:19:16.168Z,0.00
2017-12-03T02:20:16.265Z,0.00
2017-12-03T02:21:16.217Z,0.00
2017-12-03T02:22:16.641Z,0.00
2017-12-03T02:23:16.302Z,0.00
2017-12-03T02:24:16.303Z,0.00
2017-12-03T02:25:16.337Z,0.00
2017-12-03T02:26:16.461Z,0.00
2017-12-03T02:27:16.482Z,0.00
2017-12-03T02:28:16.819Z,0.00
2017-12-03T02:29:16.463Z,0.00
2017-12-03T02:30:16.506Z,0.00
2017-12-03T02:31:16.571Z,0.00
2017-12-03T02:32:16.566Z,0.00
2017-12-03T02:33:16.646Z,0.00
2017-12-03T02:34:17.062Z,0.00
2017-12-03T02:35:16.661Z,0.00
2017-12-03T02:36:16.670Z,0.00
2017-12-03T02:37:16.789Z,0.00
2017-12-03T02:38:16.747Z,0.00
2017-12-03T02:39:16.837Z,0.00
2017-12-03T02:40:17.143Z,0.00
2017-12-03T02:41:16.897Z,0.00
2017-12-03T02:42:16.912Z,0.00
2017-12-03T02:43:16.953Z,0.00
2017-12-03T02:44:16.993Z,0.00
2017-12-03T02:45:16.997Z,0.00
2017-12-03T02:46:17.346Z,0.00
2017-12-03T02:47:17.107Z,0.00
2017-12-03T02:48:17.159Z,0.00
2017-12-03T02:49:17.135Z,0.00
2017-12-03T02:50:17.105Z,0.00
2017-12-03T02:51:17.131Z,0.00
2017-12-03T02:52:17.529Z,0.00
2017-12-03T02:53:17.192Z,0.00
2017-12-03T02:54:17.344Z,0.00
2017-12-03T02:55:17.251Z,0.00
2017-12-03T02:56:17.325Z,0.00
2017-12-03T02:57:17.384Z,0.00
2017-12-03T02:58:17.698Z,0.00
2017-12-03T02:59:17.374Z,0.00
2017-12-03T03:00:17.402Z,0.00
2017-12-03T03:01:17.489Z,0.00
2017-12-03T03:02:17.478Z,0.00
2017-12-03T03:03:17.660Z,0.00
2017-12-03T03:04:17.891Z,0.00
2017-12-03T03:05:17.596Z,0.00
2017-12-03T03:06:17.586Z,0.00
2017-12-03T03:07:17.661Z,0.00
2017-12-03T03:08:17.645Z,0.00
2017-12-03T03:09:17.759Z,0.00
2017-12-03T03:10:18.059Z,0.00
2017-12-03T03:11:17.787Z,0.00
2017-12-03T03:12:17.781Z,0.00
2017-12-03T03:13:17.870Z,0.00
2017-12-03T03:14:17.882Z,0.00
2017-12-03T03:15:17.933Z,0.00
2017-12-03T03:16:18.280Z,0.00
2017-12-03T03:17:17.981Z,0.00
2017-12-03T03:18:17.969Z,0.00
2017-12-03T03:19:18.113Z,0.00
2017-12-03T03:20:18.184Z,0.00
2017-12-03T03:21:18.057Z,0.00
2017-12-03T03:22:18.439Z,0.00
2017-12-03T03:23:18.169Z,0.00
2017-12-03T03:24:18.204Z,0.00
2017-12-03T03:25:18.264Z,0.00
2017-12-03T03:26:18.347Z,0.00
2017-12-03T03:27:18.253Z,0.00
2017-12-03T03:28:18.605Z,0.00
2017-12-03T03:29:18.397Z,0.00
2017-12-03T03:30:18.387Z,0.00
2017-12-03T03:31:18.368Z,0.00
2017-12-03T03:32:18.576Z,0.00
2017-12-03T03:33:18.408Z,0.00
2017-12-03T03:34:18.534Z,0.00
2017-12-03T03:35:18.791Z,0.00
2017-12-03T03:36:18.572Z,0.00
2017-12-03T03:37:18.566Z,0.00
2017-12-03T03:38:18.628Z,0.00
2017-12-03T03:39:18.675Z,0.00
2017-12-03T03:40:18.639Z,0.00
2017-12-03T03:41:18.655Z,0.00
2017-12-03T03:42:19.045Z,0.00
2017-12-03T03:43:18.801Z,0.00
2017-12-03T03:44:18.838Z,0.00
2017-12-03T03:45:18.825Z,0.00
2017-12-03T03:46:18.810Z,0.00
2017-12-03T03:47:18.862Z,0.00
2017-12-03T03:48:18.874Z,0.00
2017-12-03T03:49:19.270Z,0.00
2017-12-03T03:50:19.122Z,0.00
2017-12-03T03:51:18.974Z,0.00
2017-12-03T03:52:19.002Z,0.00
2017-12-03T03:53:19.072Z,0.00
2017-12-03T03:54:19.106Z,0.00
2017-12-03T03:55:19.096Z,0.00
2017-12-03T03:56:19.480Z,0.00
2017-12-03T03:57:19.191Z,0.00
2017-12-03T03:58:19.220Z,0.00
2017-12-03T03:59:19.225Z,0.00
2017-12-03T04:00:19.291Z,0.00
2017-12-03T04:01:19.309Z,0.00
2017-12-03T04:02:19.462Z,0.00
2017-12-03T04:03:19.715Z,0.00
2017-12-03T04:04:19.489Z,0.00
2017-12-03T04:05:19.392Z,0.00
2017-12-03T04:06:19.439Z,0.00
2017-12-03T04:07:19.466Z,0.00
2017-12-03T04:08:19.579Z,0.00
2017-12-03T04:09:19.575Z,0.00
2017-12-03T04:10:19.997Z,0.00
2017-12-03T04:11:19.752Z,0.00
2017-12-03T04:12:19.618Z,0.00
2017-12-03T04:13:19.714Z,0.00
2017-12-03T04:14:19.679Z,0.00
2017-12-03T04:15:19.733Z,0.00
2017-12-03T04:16:19.793Z,0.00
2017-12-03T04:17:20.106Z,0.00
2017-12-03T04:18:19.787Z,0.00
2017-12-03T04:19:19.874Z,0.00
2017-12-03T04:20:19.847Z,0.00
2017-12-03T04:21:19.930Z,0.00
2017-12-03T04:22:20.076Z,0.00
2017-12-03T04:23:20.007Z,0.00
2017-12-03T04:24:20.338Z,0.00
2017-12-03T04:25:20.083Z,0.00
2017-12-03T04:26:20.081Z,0.00
2017-12-03T04:27:20.078Z,0.00
2017-12-03T04:28:20.143Z,0.00
2017-12-03T04:29:20.211Z,0.00
2017-12-03T04:30:20.175Z,0.00
2017-12-03T04:31:20.550Z,0.00
2017-12-03T04:32:20.213Z,0.00
2017-12-03T04:33:20.307Z,0.00
2017-12-03T04:34:20.348Z,0.00
2017-12-03T04:35:20.313Z,0.00
2017-12-03T04:36:20.336Z,0.00
2017-12-03T04:37:20.385Z,0.00
2017-12-03T04:38:20.751Z,0.00
2017-12-03T04:39:20.502Z,0.00
2017-12-03T04:40:20.549Z,0.00
2017-12-03T04:41:20.508Z,0.00
2017-12-03T04:42:20.534Z,0.00
2017-12-03T04:43:20.556Z,0.00
2017-12-03T04:44:20.580Z,0.00
2017-12-03T04:45:20.962Z,0.00
2017-12-03T04:46:20.745Z,0.00
2017-12-03T04:47:20.762Z,0.00
2017-12-03T04:48:20.711Z,0.00
2017-12-03T04:49:20.746Z,0.00
2017-12-03T04:50:20.764Z,0.00
2017-12-03T04:51:20.843Z,0.00
2017-12-03T04:52:21.192Z,0.00
2017-12-03T04:53:20.926Z,0.00
2017-12-03T04:54:20.962Z,0.00
2017-12-03T04:55:20.971Z,0.00
2017-12-03T04:56:20.949Z,0.00
2017-12-03T04:57:21.135Z,0.00
2017-12-03T04:58:21.379Z,0.00
2017-12-03T04:59:21.146Z,0.00
2017-12-03T05:00:21.132Z,0.00
2017-12-03T05:01:21.101Z,0.00
2017-12-03T05:02:21.205Z,0.00
2017-12-03T05:03:21.219Z,0.00
2017-12-03T05:04:21.561Z,0.00
2017-12-03T05:05:21.271Z,0.00
2017-12-03T05:06:21.251Z,0.00
2017-12-03T05:07:21.286Z,0.00
2017-12-03T05:08:21.337Z,0.00
2017-12-03T05:09:21.409Z,0.00
2017-12-03T05:10:21.745Z,0.00
2017-12-03T05:11:21.455Z,0.00
2017-12-03T05:12:21.433Z,0.00
2017-12-03T05:13:21.490Z,0.00
2017-12-03T05:14:21.501Z,0.00
2017-12-03T05:15:21.579Z,0.00
2017-12-03T05:16:21.940Z,0.00
2017-12-03T05:17:21.688Z,0.00
2017-12-03T05:18:21.689Z,0.00
2017-12-03T05:19:21.760Z,0.00
2017-12-03T05:20:21.701Z,0.00
2017-12-03T05:21:21.729Z,0.00
2017-12-03T05:22:22.109Z,0.00
2017-12-03T05:23:21.769Z,0.00
2017-12-03T05:24:21.826Z,0.00
2017-12-03T05:25:21.986Z,0.00
2017-12-03T05:26:21.924Z,0.00
2017-12-03T05:27:21.909Z,0.00
2017-12-03T05:28:22.297Z,0.00
2017-12-03T05:29:22.077Z,0.00
2017-12-03T05:30:22.000Z,0.00
2017-12-03T05:31:22.063Z,0.00
2017-12-03T05:32:22.208Z,0.00
2017-12-03T05:33:22.081Z,0.00
2017-12-03T05:34:22.478Z,0.00
2017-12-03T05:35:22.171Z,0.00
2017-12-03T05:36:22.192Z,0.00
2017-12-03T05:37:22.251Z,0.00
2017-12-03T05:38:22.246Z,0.00
2017-12-03T05:39:22.317Z,0.00
2017-12-03T05:40:22.655Z,0.00
2017-12-03T05:41:22.321Z,0.00
2017-12-03T05:42:22.499Z,0.00
2017-12-03T05:43:22.433Z,0.00
2017-12-03T05:44:22.486Z,0.00
2017-12-03T05:45:22.474Z,0.00
2017-12-03T05:46:22.842Z,0.00
2017-12-03T05:47:22.577Z,0.00
2017-12-03T05:48:22.539Z,0.00
2017-12-03T05:49:22.636Z,0.00
2017-12-03T05:50:22.606Z,0.00
2017-12-03T05:51:22.646Z,0.00
2017-12-03T05:52:23.227Z,0.00
2017-12-03T05:53:22.697Z,0.00
2017-12-03T05:54:22.719Z,0.00
2017-12-03T05:55:22.820Z,0.00
2017-12-03T05:56:22.777Z,0.00
2017-12-03T05:57:22.972Z,0.00
2017-12-03T05:58:23.213Z,0.00
2017-12-03T05:59:22.911Z,0.00
2017-12-03T06:00:22.906Z,0.00
2017-12-03T06:01:22.933Z,0.00
2017-12-03T06:02:23.037Z,0.00
2017-12-03T06:03:23.007Z,0.00
2017-12-03T06:04:23.401Z,0.00
2017-12-03T06:05:23.055Z,0.00
2017-12-03T06:06:23.213Z,0.00
2017-12-03T06:07:23.135Z,0.00
2017-12-03T06:08:23.216Z,0.00
2017-12-03T06:09:23.180Z,0.00
2017-12-03T06:10:23.223Z,0.00
2017-12-03T06:11:23.593Z,0.00
2017-12-03T06:12:23.670Z,0.00
2017-12-03T06:13:23.350Z,0.00
2017-12-03T06:14:23.384Z,0.00
2017-12-03T06:15:23.369Z,0.00
2017-12-03T06:16:23.439Z,0.00
2017-12-03T06:17:23.439Z,0.00
2017-12-03T06:18:23.800Z,0.00
2017-12-03T06:19:23.533Z,0.00
2017-12-03T06:20:23.563Z,0.00
2017-12-03T06:21:23.611Z,0.00
2017-12-03T06:22:23.641Z,0.00
2017-12-03T06:23:23.671Z,0.00
2017-12-03T06:24:23.705Z,0.00
2017-12-03T06:25:24.022Z,0.00
2017-12-03T06:26:23.730Z,0.00
2017-12-03T06:27:23.733Z,0.00
2017-12-03T06:28:23.853Z,0.00
2017-12-03T06:29:23.798Z,0.00
2017-12-03T06:30:23.833Z,0.00
2017-12-03T06:31:23.919Z,0.00
2017-12-03T06:32:24.249Z,0.00
2017-12-03T06:33:23.961Z,0.00
2017-12-03T06:34:23.942Z,0.00
2017-12-03T06:35:24.055Z,0.00
2017-12-03T06:36:24.080Z,0.00
2017-12-03T06:37:24.035Z,0.00
2017-12-03T06:38:24.128Z,0.00
2017-12-03T06:39:24.459Z,0.00
2017-12-03T06:40:24.345Z,0.00
2017-12-03T06:41:24.209Z,0.00
2017-12-03T06:42:24.185Z,0.00
2017-12-03T06:43:24.214Z,0.00
2017-12-03T06:44:24.358Z,0.00
2017-12-03T06:45:24.292Z,0.00
2017-12-03T06:46:24.675Z,0.00
2017-12-03T06:47:24.364Z,0.00
2017-12-03T06:48:24.450Z,0.00
2017-12-03T06:49:24.403Z,0.00
2017-12-03T06:50:24.461Z,0.00
2017-12-03T06:51:24.462Z,0.00
2017-12-03T06:52:24.543Z,4.00
2017-12-03T06:53:24.873Z,4.00
2017-12-03T06:54:24.569Z,4.00
2017-12-03T06:55:24.605Z,0.00
2017-12-03T06:56:24.640Z,0.00
2017-12-03T06:57:24.653Z,4.00
2017-12-03T06:58:24.679Z,4.00
2017-12-03T06:59:24.811Z,4.00
2017-12-03T07:00:25.087Z,4.00
2017-12-03T07:01:24.835Z,8.00
2017-12-03T07:02:24.842Z,8.00
2017-12-03T07:03:24.838Z,8.00
2017-12-03T07:04:24.975Z,12.00
2017-12-03T07:05:24.964Z,8.00
2017-12-03T07:06:24.986Z,12.00
2017-12-03T07:07:25.296Z,16.00
2017-12-03T07:08:25.032Z,12.00
2017-12-03T07:09:25.077Z,16.00
2017-12-03T07:10:25.105Z,20.00
2017-12-03T07:11:25.097Z,20.00
2017-12-03T07:12:25.167Z,16.00
2017-12-03T07:13:25.135Z,20.00
2017-12-03T07:14:25.515Z,20.00
2017-12-03T07:15:25.191Z,24.00
2017-12-03T07:16:25.338Z,28.00
2017-12-03T07:17:25.268Z,28.00
2017-12-03T07:18:25.300Z,32.00
2017-12-03T07:19:25.360Z,36.00
2017-12-03T07:20:25.422Z,36.00
2017-12-03T07:21:25.742Z,40.00
2017-12-03T07:22:25.477Z,44.00
2017-12-03T07:23:25.454Z,52.00
2017-12-03T07:24:25.502Z,60.00
2017-12-03T07:25:25.495Z,64.00
2017-12-03T07:26:25.524Z,68.00
2017-12-03T07:27:25.909Z,76.00
2017-12-03T07:28:25.657Z,80.00
2017-12-03T07:29:25.641Z,84.00
2017-12-03T07:30:25.646Z,92.00
2017-12-03T07:31:25.765Z,92.00
2017-12-03T07:32:25.740Z,92.00
2017-12-03T07:33:26.087Z,96.00
2017-12-03T07:34:25.832Z,96.00
2017-12-03T07:35:25.864Z,96.00
2017-12-03T07:36:25.900Z,104.00
2017-12-03T07:37:25.934Z,116.00
2017-12-03T07:38:25.912Z,124.00
2017-12-03T07:39:26.394Z,140.00
2017-12-03T07:40:25.974Z,156.00
2017-12-03T07:41:26.010Z,176.00
2017-12-03T07:42:26.114Z,196.00
2017-12-03T07:43:26.120Z,212.00
2017-12-03T07:44:26.108Z,220.00
2017-12-03T07:45:26.476Z,228.00
2017-12-03T07:46:26.181Z,240.00
2017-12-03T07:47:26.217Z,252.00
2017-12-03T07:48:26.258Z,276.00
2017-12-03T07:49:26.253Z,300.00
2017-12-03T07:50:26.284Z,312.00
2017-12-03T07:51:26.659Z,324.00
2017-12-03T07:52:26.394Z,348.00
2017-12-03T07:53:26.381Z,356.00
2017-12-03T07:54:26.396Z,364.00
2017-12-03T07:55:26.465Z,364.00
2017-12-03T07:56:26.442Z,364.00
2017-12-03T07:57:26.842Z,360.00
2017-12-03T07:58:26.522Z,340.00
2017-12-03T07:59:26.557Z,344.00
2017-12-03T08:00:26.580Z,368.00
2017-12-03T08:01:26.645Z,380.00
2017-12-03T08:02:26.664Z,404.00
2017-12-03T08:03:27.106Z,440.00
2017-12-03T08:04:26.686Z,460.00
2017-12-03T08:05:26.742Z,460.00
2017-12-03T08:06:26.764Z,464.00
2017-12-03T08:07:26.811Z,484.00
2017-12-03T08:08:26.819Z,508.00
2017-12-03T08:09:27.294Z,564.00
2017-12-03T08:10:26.906Z,592.00
2017-12-03T08:11:26.913Z,612.00
2017-12-03T08:12:26.999Z,640.00
2017-12-03T08:13:27.036Z,628.00
2017-12-03T08:14:27.060Z,544.00
2017-12-03T08:15:27.444Z,480.00
2017-12-03T08:16:27.131Z,432.00
2017-12-03T08:17:27.085Z,400.00
2017-12-03T08:18:27.115Z,380.00
2017-12-03T08:19:27.166Z,384.00
2017-12-03T08:20:27.254Z,396.00
2017-12-03T08:21:27.580Z,388.00
2017-12-03T08:22:27.286Z,392.00
2017-12-03T08:23:27.270Z,408.00
2017-12-03T08:24:27.349Z,392.00
2017-12-03T08:25:27.355Z,380.00
2017-12-03T08:26:27.429Z,392.00
2017-12-03T08:27:27.743Z,412.00
2017-12-03T08:28:27.420Z,416.00
2017-12-03T08:29:27.524Z,404.00
2017-12-03T08:30:27.502Z,380.00
2017-12-03T08:31:27.513Z,372.00
2017-12-03T08:32:27.574Z,364.00
2017-12-03T08:33:27.944Z,368.00
2017-12-03T08:34:27.609Z,368.00
2017-12-03T08:35:27.685Z,384.00
2017-12-03T08:36:27.734Z,424.00
2017-12-03T08:37:27.799Z,452.00
2017-12-03T08:38:27.746Z,464.00
2017-12-03T08:39:27.778Z,476.00
2017-12-03T08:40:28.140Z,496.00
2017-12-03T08:41:27.837Z,540.00
2017-12-03T08:42:27.900Z,576.00
2017-12-03T08:43:27.897Z,628.00
2017-12-03T08:44:27.920Z,688.00
2017-12-03T08:45:27.945Z,740.00
2017-12-03T08:46:28.038Z,804.00
2017-12-03T08:47:28.311Z,884.00
2017-12-03T08:48:28.101Z,1016.00
2017-12-03T08:49:28.139Z,1160.00
2017-12-03T08:50:28.119Z,1208.00
2017-12-03T08:51:28.202Z,1252.00
2017-12-03T08:52:28.210Z,1296.00
2017-12-03T08:53:28.309Z,1288.00
2017-12-03T08:54:28.659Z,1240.00
2017-12-03T08:55:28.262Z,1196.00
2017-12-03T08:56:28.295Z,1136.00
2017-12-03T08:57:28.318Z,1128.00
2017-12-03T08:58:28.508Z,1008.00
2017-12-03T08:59:28.432Z,880.00
2017-12-03T09:00:28.428Z,804.00
2017-12-03T09:01:28.785Z,744.00
2017-12-03T09:02:28.534Z,700.00
2017-12-03T09:03:28.605Z,668.00
2017-12-03T09:04:28.593Z,652.00
2017-12-03T09:05:28.655Z,640.00
2017-12-03T09:06:28.585Z,632.00
2017-12-03T09:07:28.638Z,608.00
2017-12-03T09:08:29.181Z,608.00
2017-12-03T09:09:28.751Z,648.00
2017-12-03T09:10:28.739Z,664.00
2017-12-03T09:11:28.795Z,704.00
2017-12-03T09:12:28.851Z,764.00
2017-12-03T09:13:28.854Z,784.00
2017-12-03T09:14:28.915Z,844.00
2017-12-03T09:15:29.182Z,880.00
2017-12-03T09:16:28.894Z,892.00
2017-12-03T09:17:28.936Z,908.00
2017-12-03T09:18:29.005Z,916.00
2017-12-03T09:19:29.040Z,876.00
2017-12-03T09:20:29.034Z,896.00
2017-12-03T09:21:29.048Z,908.00
2017-12-03T09:22:29.142Z,876.00
2017-12-03T09:23:29.131Z,844.00
2017-12-03T09:24:29.219Z,860.00
2017-12-03T09:25:29.243Z,848.00
2017-12-03T09:26:29.221Z,844.00
2017-12-03T09:27:29.240Z,828.00
2017-12-03T09:28:29.633Z,852.00
2017-12-03T09:29:29.455Z,860.00
2017-12-03T09:30:29.328Z,832.00
2017-12-03T09:31:29.370Z,864.00
2017-12-03T09:32:29.468Z,876.00
2017-12-03T09:33:29.421Z,932.00
2017-12-03T09:34:29.521Z,904.00
2017-12-03T09:35:29.909Z,932.00
2017-12-03T09:36:29.575Z,988.00
2017-12-03T09:37:29.616Z,1000.00
2017-12-03T09:38:29.644Z,1044.00
2017-12-03T09:39:29.625Z,1056.00
2017-12-03T09:40:29.638Z,1100.00
2017-12-03T09:41:29.807Z,1140.00
2017-12-03T09:42:30.046Z,1208.00
2017-12-03T09:43:29.745Z,1240.00
2017-12-03T09:44:29.812Z,1220.00
2017-12-03T09:45:29.806Z,1260.00
2017-12-03T09:46:29.819Z,1176.00
2017-12-03T09:47:29.933Z,1100.00
2017-12-03T09:48:29.899Z,1120.00
2017-12-03T09:49:30.265Z,1108.00
2017-12-03T09:50:29.942Z,1132.00
2017-12-03T09:51:29.973Z,1140.00
2017-12-03T09:52:30.014Z,1040.00
2017-12-03T09:53:30.158Z,992.00
2017-12-03T09:54:30.142Z,992.00
2017-12-03T09:55:30.173Z,908.00
2017-12-03T09:56:30.484Z,820.00
2017-12-03T09:57:30.179Z,776.00
2017-12-03T09:58:30.205Z,792.00
2017-12-03T09:59:30.275Z,840.00
2017-12-03T10:00:30.280Z,844.00
2017-12-03T10:01:30.347Z,800.00
2017-12-03T10:02:30.685Z,776.00
2017-12-03T10:03:30.341Z,740.00
2017-12-03T10:04:30.442Z,716.00
2017-12-03T10:05:30.521Z,716.00
2017-12-03T10:06:30.433Z,688.00
2017-12-03T10:07:30.497Z,708.00
2017-12-03T10:08:30.863Z,716.00
2017-12-03T10:09:30.549Z,760.00
2017-12-03T10:10:30.576Z,800.00
2017-12-03T10:11:30.706Z,804.00
2017-12-03T10:12:30.638Z,808.00
2017-12-03T10:13:30.653Z,816.00
2017-12-03T10:14:30.803Z,792.00
2017-12-03T10:15:30.713Z,796.00
2017-12-03T10:16:30.821Z,784.00
2017-12-03T10:17:30.842Z,808.00
2017-12-03T10:18:30.830Z,808.00
2017-12-03T10:19:30.893Z,824.00
2017-12-03T10:20:31.235Z,844.00
2017-12-03T10:21:30.899Z,832.00
2017-12-03T10:22:30.943Z,832.00
2017-12-03T10:23:30.958Z,776.00
2017-12-03T10:24:31.007Z,724.00
2017-12-03T10:25:31.190Z,668.00
2017-12-03T10:26:31.420Z,612.00
2017-12-03T10:27:31.087Z,632.00
2017-12-03T10:28:31.116Z,636.00
2017-12-03T10:29:31.212Z,604.00
2017-12-03T10:30:31.273Z,588.00
2017-12-03T10:31:31.220Z,608.00
2017-12-03T10:32:31.587Z,604.00
2017-12-03T10:33:31.268Z,608.00
2017-12-03T10:34:31.344Z,592.00
2017-12-03T10:35:31.415Z,584.00
2017-12-03T10:36:31.406Z,560.00
2017-12-03T10:37:31.396Z,588.00
2017-12-03T10:38:31.773Z,620.00
2017-12-03T10:39:31.531Z,616.00
2017-12-03T10:40:31.543Z,664.00
2017-12-03T10:41:31.539Z,708.00
2017-12-03T10:42:31.571Z,728.00
2017-12-03T10:43:31.597Z,756.00
2017-12-03T10:44:31.980Z,792.00
2017-12-03T10:45:31.764Z,800.00
2017-12-03T10:46:31.732Z,808.00
2017-12-03T10:47:31.775Z,848.00
2017-12-03T10:48:31.784Z,860.00
2017-12-03T10:49:31.758Z,848.00
2017-12-03T10:50:31.794Z,832.00
2017-12-03T10:51:31.911Z,804.00
2017-12-03T10:52:31.874Z,820.00
2017-12-03T10:53:31.931Z,804.00
2017-12-03T10:54:31.929Z,760.00
2017-12-03T10:55:31.974Z,816.00
2017-12-03T10:56:32.276Z,812.00
2017-12-03T10:57:32.121Z,836.00
2017-12-03T10:58:32.119Z,872.00
2017-12-03T10:59:32.083Z,888.00
2017-12-03T11:00:32.166Z,884.00
2017-12-03T11:01:32.181Z,876.00
2017-12-03T11:02:32.563Z,888.00
2017-12-03T11:03:32.307Z,820.00
2017-12-03T11:04:32.291Z,776.00
2017-12-03T11:05:32.250Z,748.00
2017-12-03T11:06:32.281Z,756.00
2017-12-03T11:07:32.382Z,772.00
2017-12-03T11:08:32.702Z,772.00
2017-12-03T11:09:32.425Z,732.00
2017-12-03T11:10:32.501Z,708.00
2017-12-03T11:11:32.432Z,708.00
2017-12-03T11:12:32.553Z,696.00
2017-12-03T11:13:32.571Z,684.00
2017-12-03T11:14:32.541Z,748.00
2017-12-03T11:15:32.991Z,716.00
2017-12-03T11:16:32.623Z,696.00
2017-12-03T11:17:32.696Z,720.00
2017-12-03T11:18:32.700Z,724.00
2017-12-03T11:19:32.760Z,788.00
2017-12-03T11:20:32.723Z,868.00
2017-12-03T11:21:32.751Z,940.00
2017-12-03T11:22:33.123Z,1044.00
2017-12-03T11:23:32.873Z,1192.00
2017-12-03T11:24:32.857Z,1272.00
2017-12-03T11:25:32.886Z,1292.00
2017-12-03T11:26:32.899Z,1252.00
2017-12-03T11:27:32.987Z,1296.00
2017-12-03T11:28:33.483Z,1316.00
2017-12-03T11:29:33.339Z,1180.00
2017-12-03T11:30:33.090Z,1136.00
2017-12-03T11:31:33.258Z,1052.00
2017-12-03T11:32:33.161Z,880.00
2017-12-03T11:33:33.168Z,840.00
2017-12-03T11:34:33.143Z,944.00
2017-12-03T11:35:33.191Z,960.00
2017-12-03T11:36:33.581Z,1016.00
2017-12-03T11:37:33.301Z,1004.00
2017-12-03T11:38:33.330Z,980.00
2017-12-03T11:39:33.750Z,1000.00
2017-12-03T11:40:33.396Z,920.00
2017-12-03T11:41:33.387Z,856.00
2017-12-03T11:42:33.441Z,796.00
2017-12-03T11:43:33.767Z,740.00
2017-12-03T11:44:33.505Z,668.00
2017-12-03T11:45:33.483Z,688.00
2017-12-03T11:46:34.198Z,648.00
2017-12-03T11:47:33.663Z,672.00
2017-12-03T11:48:33.575Z,664.00
2017-12-03T11:49:33.619Z,720.00
2017-12-03T11:50:34.050Z,708.00
2017-12-03T11:51:33.672Z,704.00
2017-12-03T11:52:33.764Z,692.00
2017-12-03T11:53:33.736Z,688.00
2017-12-03T11:54:33.808Z,736.00
2017-12-03T11:55:33.867Z,744.00
2017-12-03T11:56:33.921Z,688.00
2017-12-03T11:57:34.225Z,688.00
2017-12-03T11:58:33.880Z,716.00
2017-12-03T11:59:33.911Z,712.00
2017-12-03T12:00:33.992Z,700.00
2017-12-03T12:01:34.023Z,684.00
2017-12-03T12:02:34.069Z,684.00
2017-12-03T12:03:34.106Z,692.00
2017-12-03T12:04:34.435Z,656.00
2017-12-03T12:05:34.113Z,644.00
2017-12-03T12:06:34.177Z,684.00
2017-12-03T12:07:34.175Z,644.00
2017-12-03T12:08:34.247Z,656.00
2017-12-03T12:09:34.285Z,636.00
2017-12-03T12:10:34.322Z,676.00
2017-12-03T12:11:34.648Z,664.00
2017-12-03T12:12:34.365Z,664.00
2017-12-03T12:13:34.477Z,636.00
2017-12-03T12:14:34.463Z,648.00
2017-12-03T12:15:34.482Z,640.00
2017-12-03T12:16:34.492Z,600.00
2017-12-03T12:17:34.519Z,592.00
2017-12-03T12:18:34.861Z,584.00
2017-12-03T12:19:34.598Z,608.00
2017-12-03T12:20:34.578Z,636.00
2017-12-03T12:21:34.622Z,620.00
2017-12-03T12:22:34.618Z,648.00
2017-12-03T12:23:34.675Z,632.00
2017-12-03T12:24:34.790Z,640.00
2017-12-03T12:25:35.083Z,608.00
2017-12-03T12:26:34.762Z,628.00
2017-12-03T12:27:34.826Z,604.00
2017-12-03T12:28:34.857Z,612.00
2017-12-03T12:29:34.908Z,612.00
2017-12-03T12:30:34.946Z,608.00
2017-12-03T12:31:35.270Z,584.00
2017-12-03T12:32:34.939Z,584.00
2017-12-03T12:33:34.984Z,648.00
2017-12-03T12:34:35.046Z,688.00
2017-12-03T12:35:35.079Z,632.00
2017-12-03T12:36:35.132Z,616.00
2017-12-03T12:37:35.477Z,692.00
2017-12-03T12:38:35.176Z,664.00
2017-12-03T12:39:35.189Z,660.00
2017-12-03T12:40:35.299Z,792.00
2017-12-03T12:41:35.290Z,720.00
2017-12-03T12:42:35.335Z,652.00
2017-12-03T12:43:35.633Z,712.00
2017-12-03T12:44:35.310Z,656.00
2017-12-03T12:45:35.465Z,596.00
2017-12-03T12:46:35.454Z,584.00
2017-12-03T12:47:35.450Z,596.00
2017-12-03T12:48:35.480Z,568.00
2017-12-03T12:49:35.855Z,536.00
2017-12-03T12:50:35.561Z,520.00
2017-12-03T12:51:35.602Z,560.00
2017-12-03T12:52:35.624Z,500.00
2017-12-03T12:53:35.618Z,504.00
2017-12-03T12:54:35.661Z,536.00
2017-12-03T12:55:36.008Z,524.00